createdAt,value
2018-01-15T00:00:17.837Z,1017.66
2018-01-15T00:01:17.815Z,1017.65
2018-01-15T00:02:17.793Z,1017.61
2018-01-15T00:03:17.769Z,1017.61
2018-01-15T00:04:17.748Z,1017.61
2018-01-15T00:05:17.723Z,1017.59
2018-01-15T00:06:17.701Z,1017.55
2018-01-15T00:07:17.678Z,1017.57
2018-01-15T00:08:17.657Z,1017.54
2018-01-15T00:09:17.633Z,1017.52
2018-01-15T00:10:17.610Z,1017.53
2018-01-15T00:11:17.587Z,1017.49
2018-01-15T00:12:17.565Z,1017.46
2018-01-15T00:13:17.542Z,1017.47
2018-01-15T00:14:17.519Z,1017.46
2018-01-15T00:15:17.497Z,1017.43
2018-01-15T00:16:17.475Z,1017.39
2018-01-15T00:17:17.451Z,1017.36
2018-01-15T00:18:17.474Z,1017.31
2018-01-15T00:19:17.405Z,1017.31
2018-01-15T00:20:17.382Z,1017.28
2018-01-15T00:21:17.358Z,1017.25
2018-01-15T00:22:17.336Z,1017.21
2018-01-15T00:23:17.314Z,1017.22
2018-01-15T00:24:17.292Z,1017.25
2018-01-15T00:25:17.268Z,1017.21
2018-01-15T00:26:17.245Z,1017.17
2018-01-15T00:27:17.223Z,1017.15
2018-01-15T00:28:17.200Z,1017.19
2018-01-15T00:29:17.175Z,1017.16
2018-01-15T00:30:17.155Z,1017.11
2018-01-15T00:31:17.134Z,1017.08
2018-01-15T00:32:17.108Z,1017.03
2018-01-15T00:33:17.086Z,1017.02
2018-01-15T00:34:17.062Z,1017.06
2018-01-15T00:35:17.040Z,1017.02
2018-01-15T00:36:17.018Z,1017.01
2018-01-15T00:37:16.995Z,1017.01
2018-01-15T00:38:16.971Z,1017.02
2018-01-15T00:39:16.950Z,1016.98
2018-01-15T00:40:16.927Z,1016.97
2018-01-15T00:41:16.909Z,1016.96
2018-01-15T00:42:16.881Z,1016.94
2018-01-15T00:43:16.859Z,1016.94
2018-01-15T00:44:16.836Z,1016.90
2018-01-15T00:45:16.813Z,1016.87
2018-01-15T00:46:16.790Z,1016.89
2018-01-15T00:47:16.767Z,1016.87
2018-01-15T00:48:16.746Z,1016.85
2018-01-15T00:49:16.721Z,1016.89
2018-01-15T00:50:16.699Z,1016.84
2018-01-15T00:51:16.676Z,1016.86
2018-01-15T00:52:16.654Z,1016.82
2018-01-15T00:53:16.630Z,1016.82
2018-01-15T00:54:16.608Z,1016.80
2018-01-15T00:55:16.585Z,1016.75
2018-01-15T00:56:16.561Z,1016.82
2018-01-15T00:57:16.537Z,1016.76
2018-01-15T00:58:16.516Z,1016.65
2018-01-15T00:59:16.494Z,1016.70
2018-01-15T01:00:16.470Z,1016.68
2018-01-15T01:01:16.447Z,1016.72
2018-01-15T01:02:16.424Z,1016.72
2018-01-15T01:03:16.401Z,1016.64
2018-01-15T01:04:16.378Z,1016.63
2018-01-15T01:05:16.355Z,1016.61
2018-01-15T01:06:16.332Z,1016.66
2018-01-15T01:07:16.310Z,1016.68
2018-01-15T01:08:16.286Z,1016.66
2018-01-15T01:09:16.264Z,1016.67
2018-01-15T01:10:16.241Z,1016.71
2018-01-15T01:11:16.220Z,1016.73
2018-01-15T01:12:16.196Z,1016.68
2018-01-15T01:13:16.172Z,1016.63
2018-01-15T01:14:16.149Z,1016.69
2018-01-15T01:15:16.128Z,1016.70
2018-01-15T01:16:16.105Z,1016.67
2018-01-15T01:17:16.082Z,1016.61
2018-01-15T01:18:16.063Z,1016.61
2018-01-15T01:19:16.037Z,1016.69
2018-01-15T01:20:16.013Z,1016.71
2018-01-15T01:21:15.991Z,1016.62
2018-01-15T01:22:15.968Z,1016.63
2018-01-15T01:23:15.945Z,1016.64
2018-01-15T01:24:15.923Z,1016.62
2018-01-15T01:25:15.902Z,1016.64
2018-01-15T01:26:15.877Z,1016.54
2018-01-15T01:27:15.855Z,1016.50
2018-01-15T01:28:15.832Z,1016.47
2018-01-15T01:29:15.809Z,1016.46
2018-01-15T01:30:15.785Z,1016.50
2018-01-15T01:31:15.764Z,1016.47
2018-01-15T01:32:15.741Z,1016.43
2018-01-15T01:33:15.718Z,1016.35
2018-01-15T01:34:15.696Z,1016.32
2018-01-15T01:35:15.673Z,1016.21
2018-01-15T01:36:15.650Z,1016.22
2018-01-15T01:37:15.626Z,1016.27
2018-01-15T01:38:15.606Z,1016.30
2018-01-15T01:39:15.581Z,1016.26
2018-01-15T01:40:15.559Z,1016.27
2018-01-15T01:41:15.536Z,1016.30
2018-01-15T01:42:15.514Z,1016.33
2018-01-15T01:43:15.490Z,1016.36
2018-01-15T01:44:15.469Z,1016.26
2018-01-15T01:45:15.477Z,1016.15
2018-01-15T01:46:15.423Z,1016.13
2018-01-15T01:47:15.400Z,1016.17
2018-01-15T01:48:15.378Z,1016.10
2018-01-15T01:49:15.354Z,1016.10
2018-01-15T01:50:15.332Z,1016.19
2018-01-15T01:51:15.309Z,1016.22
2018-01-15T01:52:15.287Z,1016.25
2018-01-15T01:53:15.263Z,1016.27
2018-01-15T01:54:15.242Z,1016.19
2018-01-15T01:55:15.219Z,1016.16
2018-01-15T01:56:15.197Z,1016.11
2018-01-15T01:57:15.173Z,1016.15
2018-01-15T01:58:15.151Z,1016.09
2018-01-15T01:59:15.128Z,1016.07
2018-01-15T02:00:15.105Z,1016.07
2018-01-15T02:01:15.082Z,1016.03
2018-01-15T02:02:15.060Z,1016.01
2018-01-15T02:03:15.036Z,1016.07
2018-01-15T02:04:15.020Z,1015.98
2018-01-15T02:05:14.991Z,1016.03
2018-01-15T02:06:14.969Z,1015.97
2018-01-15T02:07:14.947Z,1015.99
2018-01-15T02:08:14.924Z,1016.06
2018-01-15T02:09:14.899Z,1015.97
2018-01-15T02:10:14.878Z,1015.96
2018-01-15T02:11:14.855Z,1015.94
2018-01-15T02:12:14.833Z,1015.91
2018-01-15T02:13:14.814Z,1015.89
2018-01-15T02:14:14.789Z,1015.95
2018-01-15T02:15:14.764Z,1015.98
2018-01-15T02:16:14.741Z,1015.95
2018-01-15T02:17:14.718Z,1015.96
2018-01-15T02:18:14.694Z,1015.93
2018-01-15T02:19:14.680Z,1015.93
2018-01-15T02:20:14.651Z,1015.91
2018-01-15T02:21:14.626Z,1015.89
2018-01-15T02:22:14.605Z,1015.84
2018-01-15T02:23:14.583Z,1015.84
2018-01-15T02:24:14.560Z,1015.83
2018-01-15T02:25:14.536Z,1015.82
2018-01-15T02:26:14.514Z,1015.79
2018-01-15T02:27:14.491Z,1015.78
2018-01-15T02:28:14.469Z,1015.71
2018-01-15T02:29:14.449Z,1015.74
2018-01-15T02:30:14.422Z,1015.68
2018-01-15T02:31:14.401Z,1015.69
2018-01-15T02:32:14.378Z,1015.66
2018-01-15T02:33:14.354Z,1015.63
2018-01-15T02:34:14.331Z,1015.60
2018-01-15T02:35:14.313Z,1015.55
2018-01-15T02:36:14.287Z,1015.55
2018-01-15T02:37:14.263Z,1015.49
2018-01-15T02:38:14.240Z,1015.44
2018-01-15T02:39:14.217Z,1015.46
2018-01-15T02:40:14.196Z,1015.39
2018-01-15T02:41:14.172Z,1015.39
2018-01-15T02:42:14.149Z,1015.39
2018-01-15T02:43:14.127Z,1015.36
2018-01-15T02:44:14.105Z,1015.31
2018-01-15T02:45:14.081Z,1015.34
2018-01-15T02:46:14.058Z,1015.36
2018-01-15T02:47:14.036Z,1015.37
2018-01-15T02:48:14.036Z,1015.39
2018-01-15T02:49:13.991Z,1015.40
2018-01-15T02:50:13.966Z,1015.30
2018-01-15T02:51:13.944Z,1015.28
2018-01-15T02:52:13.922Z,1015.25
2018-01-15T02:53:13.898Z,1015.23
2018-01-15T02:54:13.875Z,1015.22
2018-01-15T02:55:13.852Z,1015.21
2018-01-15T02:56:13.830Z,1015.20
2018-01-15T02:57:13.806Z,1015.24
2018-01-15T02:58:13.783Z,1015.16
2018-01-15T02:59:13.760Z,1015.12
2018-01-15T03:00:13.737Z,1015.12
2018-01-15T03:01:13.713Z,1015.14
2018-01-15T03:02:13.691Z,1015.07
2018-01-15T03:03:13.668Z,1015.05
2018-01-15T03:04:13.648Z,1015.03
2018-01-15T03:05:13.622Z,1015.03
2018-01-15T03:06:13.598Z,1015.02
2018-01-15T03:07:13.580Z,1014.99
2018-01-15T03:08:13.553Z,1014.92
2018-01-15T03:09:13.531Z,1014.94
2018-01-15T03:10:13.509Z,1014.94
2018-01-15T03:11:13.486Z,1014.79
2018-01-15T03:12:13.465Z,1014.85
2018-01-15T03:13:13.442Z,1014.88
2018-01-15T03:14:13.417Z,1014.82
2018-01-15T03:15:13.395Z,1014.85
2018-01-15T03:16:13.372Z,1014.83
2018-01-15T03:17:13.349Z,1014.76
2018-01-15T03:18:13.326Z,1014.79
2018-01-15T03:19:13.308Z,1014.81
2018-01-15T03:20:13.281Z,1014.82
2018-01-15T03:21:13.256Z,1014.83
2018-01-15T03:22:13.235Z,1014.72
2018-01-15T03:23:13.211Z,1014.72
2018-01-15T03:24:13.190Z,1014.78
2018-01-15T03:25:13.166Z,1014.80
2018-01-15T03:26:13.142Z,1014.73
2018-01-15T03:27:13.120Z,1014.68
2018-01-15T03:28:13.098Z,1014.70
2018-01-15T03:29:13.075Z,1014.67
2018-01-15T03:30:13.052Z,1014.63
2018-01-15T03:31:13.028Z,1014.62
2018-01-15T03:32:13.007Z,1014.61
2018-01-15T03:33:12.983Z,1014.59
2018-01-15T03:34:12.960Z,1014.59
2018-01-15T03:35:12.938Z,1014.63
2018-01-15T03:36:12.915Z,1014.60
2018-01-15T03:37:12.892Z,1014.56
2018-01-15T03:38:12.869Z,1014.56
2018-01-15T03:39:12.845Z,1014.56
2018-01-15T03:40:12.823Z,1014.52
2018-01-15T03:41:12.800Z,1014.46
2018-01-15T03:42:12.775Z,1014.54
2018-01-15T03:43:12.753Z,1014.52
2018-01-15T03:44:12.731Z,1014.52
2018-01-15T03:45:12.708Z,1014.52
2018-01-15T03:46:12.684Z,1014.41
2018-01-15T03:47:12.662Z,1014.45
2018-01-15T03:48:12.640Z,1014.39
2018-01-15T03:49:12.616Z,1014.40
2018-01-15T03:50:12.595Z,1014.39
2018-01-15T03:51:12.570Z,1014.33
2018-01-15T03:52:12.548Z,1014.38
2018-01-15T03:53:12.524Z,1014.34
2018-01-15T03:54:12.501Z,1014.31
2018-01-15T03:55:12.477Z,1014.26
2018-01-15T03:56:12.455Z,1014.30
2018-01-15T03:57:12.431Z,1014.32
2018-01-15T03:58:12.407Z,1014.24
2018-01-15T03:59:12.386Z,1014.17
2018-01-15T04:00:12.362Z,1014.17
2018-01-15T04:01:12.340Z,1014.16
2018-01-15T04:02:12.317Z,1014.16
2018-01-15T04:03:12.293Z,1014.14
2018-01-15T04:04:12.271Z,1014.08
2018-01-15T04:05:12.247Z,1014.12
2018-01-15T04:06:12.227Z,1014.08
2018-01-15T04:07:12.200Z,1014.04
2018-01-15T04:08:12.178Z,1014.00
2018-01-15T04:09:12.155Z,1013.96
2018-01-15T04:10:12.134Z,1013.97
2018-01-15T04:11:12.110Z,1013.92
2018-01-15T04:12:12.087Z,1014.00
2018-01-15T04:13:12.063Z,1013.99
2018-01-15T04:14:12.040Z,1013.94
2018-01-15T04:15:12.016Z,1013.99
2018-01-15T04:16:11.995Z,1013.98
2018-01-15T04:17:11.970Z,1013.93
2018-01-15T04:18:11.948Z,1013.96
2018-01-15T04:19:11.925Z,1013.92
2018-01-15T04:20:11.946Z,1013.93
2018-01-15T04:21:11.880Z,1013.90
2018-01-15T04:22:11.857Z,1013.86
2018-01-15T04:23:11.834Z,1013.89
2018-01-15T04:24:11.812Z,1013.85
2018-01-15T04:25:11.788Z,1013.78
2018-01-15T04:26:11.766Z,1013.85
2018-01-15T04:27:11.743Z,1013.81
2018-01-15T04:28:11.721Z,1013.76
2018-01-15T04:29:11.746Z,1013.81
2018-01-15T04:30:11.675Z,1013.77
2018-01-15T04:31:11.652Z,1013.82
2018-01-15T04:32:11.629Z,1013.78
2018-01-15T04:33:11.605Z,1013.75
2018-01-15T04:34:11.582Z,1013.71
2018-01-15T04:35:11.560Z,1013.76
2018-01-15T04:36:11.538Z,1013.72
2018-01-15T04:37:11.514Z,1013.71
2018-01-15T04:38:11.492Z,1013.70
2018-01-15T04:39:11.468Z,1013.65
2018-01-15T04:40:11.446Z,1013.62
2018-01-15T04:41:11.422Z,1013.62
2018-01-15T04:42:11.400Z,1013.56
2018-01-15T04:43:11.376Z,1013.51
2018-01-15T04:44:11.358Z,1013.55
2018-01-15T04:45:11.330Z,1013.53
2018-01-15T04:46:11.308Z,1013.48
2018-01-15T04:47:11.285Z,1013.49
2018-01-15T04:48:11.262Z,1013.46
2018-01-15T04:49:11.239Z,1013.45
2018-01-15T04:50:11.215Z,1013.39
2018-01-15T04:51:11.192Z,1013.38
2018-01-15T04:52:11.171Z,1013.34
2018-01-15T04:53:11.146Z,1013.35
2018-01-15T04:54:11.124Z,1013.28
2018-01-15T04:55:11.102Z,1013.23
2018-01-15T04:56:11.079Z,1013.15
2018-01-15T04:57:11.055Z,1013.19
2018-01-15T04:58:11.033Z,1013.18
2018-01-15T04:59:11.011Z,1013.11
2018-01-15T05:00:10.988Z,1013.13
2018-01-15T05:01:10.965Z,1013.13
2018-01-15T05:02:10.941Z,1013.12
2018-01-15T05:03:10.919Z,1013.15
2018-01-15T05:04:10.897Z,1013.09
2018-01-15T05:05:10.877Z,1013.08
2018-01-15T05:06:10.851Z,1013.06
2018-01-15T05:07:10.829Z,1013.03
2018-01-15T05:08:10.805Z,1012.99
2018-01-15T05:09:10.782Z,1012.88
2018-01-15T05:10:10.761Z,1012.91
2018-01-15T05:11:10.736Z,1012.85
2018-01-15T05:12:10.714Z,1012.85
2018-01-15T05:13:10.689Z,1012.86
2018-01-15T05:14:10.668Z,1012.77
2018-01-15T05:15:10.646Z,1012.73
2018-01-15T05:16:10.624Z,1012.74
2018-01-15T05:17:10.598Z,1012.73
2018-01-15T05:18:10.578Z,1012.67
2018-01-15T05:19:10.592Z,1012.66
2018-01-15T05:20:10.537Z,1012.65
2018-01-15T05:21:10.519Z,1012.69
2018-01-15T05:22:10.486Z,1012.67
2018-01-15T05:23:10.463Z,1012.62
2018-01-15T05:24:10.441Z,1012.59
2018-01-15T05:25:10.417Z,1012.61
2018-01-15T05:26:10.395Z,1012.56
2018-01-15T05:27:10.372Z,1012.55
2018-01-15T05:28:10.350Z,1012.50
2018-01-15T05:29:10.326Z,1012.53
2018-01-15T05:30:10.304Z,1012.49
2018-01-15T05:31:10.281Z,1012.42
2018-01-15T05:32:10.258Z,1012.41
2018-01-15T05:33:10.235Z,1012.37
2018-01-15T05:34:10.213Z,1012.40
2018-01-15T05:35:10.189Z,1012.40
2018-01-15T05:36:10.168Z,1012.40
2018-01-15T05:37:10.143Z,1012.39
2018-01-15T05:38:10.123Z,1012.36
2018-01-15T05:39:10.100Z,1012.36
2018-01-15T05:40:10.077Z,1012.38
2018-01-15T05:41:10.055Z,1012.37
2018-01-15T05:42:10.031Z,1012.38
2018-01-15T05:43:10.010Z,1012.40
2018-01-15T05:44:09.990Z,1012.32
2018-01-15T05:45:09.964Z,1012.28
2018-01-15T05:46:09.943Z,1012.27
2018-01-15T05:47:09.920Z,1012.33
2018-01-15T05:48:09.898Z,1012.28
2018-01-15T05:49:09.874Z,1012.30
2018-01-15T05:50:09.851Z,1012.28
2018-01-15T05:51:09.830Z,1012.27
2018-01-15T05:52:09.807Z,1012.24
2018-01-15T05:53:09.783Z,1012.22
2018-01-15T05:54:09.761Z,1012.20
2018-01-15T05:55:09.739Z,1012.18
2018-01-15T05:56:09.715Z,1012.16
2018-01-15T05:57:09.692Z,1012.17
2018-01-15T05:58:09.676Z,1012.21
2018-01-15T05:59:09.649Z,1012.24
2018-01-15T06:00:09.627Z,1012.20
2018-01-15T06:01:09.605Z,1012.14
2018-01-15T06:02:09.581Z,1012.19
2018-01-15T06:04:09.537Z,1012.20
2018-01-15T06:05:09.513Z,1012.10
2018-01-15T06:06:09.491Z,1012.10
2018-01-15T06:07:09.474Z,1012.09
2018-01-15T06:08:09.446Z,1012.03
2018-01-15T06:09:09.424Z,1012.01
2018-01-15T06:10:09.403Z,1012.04
2018-01-15T06:11:09.379Z,1012.01
2018-01-15T06:12:09.357Z,1012.00
2018-01-15T06:13:09.332Z,1011.96
2018-01-15T06:14:09.310Z,1011.99
2018-01-15T06:15:09.289Z,1011.92
2018-01-15T06:16:09.269Z,1011.87
2018-01-15T06:17:09.244Z,1011.87
2018-01-15T06:18:09.221Z,1011.93
2018-01-15T06:19:09.198Z,1011.90
2018-01-15T06:20:09.176Z,1011.87
2018-01-15T06:21:09.154Z,1011.86
2018-01-15T06:22:09.131Z,1011.87
2018-01-15T06:23:09.109Z,1011.86
2018-01-15T06:24:09.087Z,1011.82
2018-01-15T06:25:09.064Z,1011.85
2018-01-15T06:26:09.041Z,1011.84
2018-01-15T06:27:09.019Z,1011.77
2018-01-15T06:28:08.998Z,1011.79
2018-01-15T06:29:08.974Z,1011.72
2018-01-15T06:30:08.952Z,1011.72
2018-01-15T06:31:08.946Z,1011.65
2018-01-15T06:32:08.906Z,1011.58
2018-01-15T06:33:08.885Z,1011.60
2018-01-15T06:34:08.862Z,1011.60
2018-01-15T06:35:08.839Z,1011.58
2018-01-15T06:36:08.817Z,1011.58
2018-01-15T06:37:08.794Z,1011.63
2018-01-15T06:38:08.772Z,1011.61
2018-01-15T06:39:08.750Z,1011.60
2018-01-15T06:40:08.728Z,1011.61
2018-01-15T06:41:08.704Z,1011.58
2018-01-15T06:42:08.683Z,1011.53
2018-01-15T06:43:08.662Z,1011.53
2018-01-15T06:44:08.638Z,1011.52
2018-01-15T06:45:08.614Z,1011.54
2018-01-15T06:46:08.593Z,1011.53
2018-01-15T06:47:08.570Z,1011.55
2018-01-15T06:48:08.548Z,1011.52
2018-01-15T06:49:08.525Z,1011.58
2018-01-15T06:50:08.504Z,1011.50
2018-01-15T06:51:08.482Z,1011.51
2018-01-15T06:52:08.460Z,1011.52
2018-01-15T06:53:08.436Z,1011.52
2018-01-15T06:54:08.416Z,1011.47
2018-01-15T06:55:08.393Z,1011.44
2018-01-15T06:56:08.373Z,1011.42
2018-01-15T06:57:08.348Z,1011.44
2018-01-15T06:58:08.326Z,1011.42
2018-01-15T06:59:08.304Z,1011.38
2018-01-15T07:00:08.281Z,1011.36
2018-01-15T07:01:08.262Z,1011.29
2018-01-15T07:02:08.239Z,1011.28
2018-01-15T07:03:08.215Z,1011.26
2018-01-15T07:04:08.193Z,1011.25
2018-01-15T07:05:08.169Z,1011.24
2018-01-15T07:06:08.147Z,1011.20
2018-01-15T07:07:08.126Z,1011.16
2018-01-15T07:08:08.104Z,1011.18
2018-01-15T07:09:08.080Z,1011.15
2018-01-15T07:10:08.058Z,1011.14
2018-01-15T07:11:08.037Z,1011.11
2018-01-15T07:12:08.017Z,1011.12
2018-01-15T07:13:07.993Z,1011.13
2018-01-15T07:14:07.969Z,1011.15
2018-01-15T07:15:07.947Z,1011.14
2018-01-15T07:16:07.925Z,1011.13
2018-01-15T07:17:07.902Z,1011.10
2018-01-15T07:18:07.879Z,1011.09
2018-01-15T07:19:07.856Z,1011.11
2018-01-15T07:20:07.836Z,1011.05
2018-01-15T07:21:07.811Z,1011.04
2018-01-15T07:22:07.794Z,1011.07
2018-01-15T07:23:07.768Z,1011.07
2018-01-15T07:24:07.746Z,1011.06
2018-01-15T07:25:07.724Z,1011.01
2018-01-15T07:26:07.703Z,1011.02
2018-01-15T07:27:07.680Z,1011.01
2018-01-15T07:28:07.657Z,1010.99
2018-01-15T07:29:07.634Z,1011.00
2018-01-15T07:30:07.612Z,1010.96
2018-01-15T07:31:07.591Z,1010.88
2018-01-15T07:32:07.568Z,1010.91
2018-01-15T07:33:07.545Z,1010.97
2018-01-15T07:34:07.524Z,1010.98
2018-01-15T07:35:07.501Z,1010.90
2018-01-15T07:36:07.480Z,1010.87
2018-01-15T07:37:07.457Z,1010.83
2018-01-15T07:38:07.435Z,1010.82
2018-01-15T07:39:07.414Z,1010.86
2018-01-15T07:40:07.391Z,1010.81
2018-01-15T07:41:07.369Z,1010.74
2018-01-15T07:42:07.346Z,1010.83
2018-01-15T07:43:07.325Z,1010.77
2018-01-15T07:44:07.303Z,1010.65
2018-01-15T07:45:07.281Z,1010.64
2018-01-15T07:46:07.257Z,1010.57
2018-01-15T07:47:07.239Z,1010.61
2018-01-15T07:48:07.223Z,1010.51
2018-01-15T07:49:07.192Z,1010.51
2018-01-15T07:50:07.170Z,1010.51
2018-01-15T07:51:07.148Z,1010.43
2018-01-15T07:52:07.124Z,1010.48
2018-01-15T07:53:07.102Z,1010.44
2018-01-15T07:54:07.080Z,1010.62
2018-01-15T07:55:07.057Z,1010.52
2018-01-15T07:56:07.038Z,1010.54
2018-01-15T07:57:07.013Z,1010.50
2018-01-15T07:58:06.991Z,1010.43
2018-01-15T07:59:06.970Z,1010.47
2018-01-15T08:00:06.947Z,1010.47
2018-01-15T08:01:06.925Z,1010.45
2018-01-15T08:02:06.902Z,1010.59
2018-01-15T08:03:06.881Z,1010.54
2018-01-15T08:04:06.865Z,1010.51
2018-01-15T08:05:06.837Z,1010.48
2018-01-15T08:06:06.814Z,1010.41
2018-01-15T08:07:06.792Z,1010.40
2018-01-15T08:08:06.771Z,1010.37
2018-01-15T08:09:06.746Z,1010.36
2018-01-15T08:10:06.725Z,1010.34
2018-01-15T08:11:06.703Z,1010.36
2018-01-15T08:12:06.681Z,1010.31
2018-01-15T08:13:06.658Z,1010.33
2018-01-15T08:14:06.636Z,1010.29
2018-01-15T08:15:06.614Z,1010.26
2018-01-15T08:16:06.616Z,1010.28
2018-01-15T08:17:06.569Z,1010.22
2018-01-15T08:18:06.547Z,1010.24
2018-01-15T08:19:06.525Z,1010.22
2018-01-15T08:20:06.502Z,1010.23
2018-01-15T08:21:06.480Z,1010.18
2018-01-15T08:22:06.459Z,1010.17
2018-01-15T08:23:06.436Z,1010.15
2018-01-15T08:24:06.415Z,1010.06
2018-01-15T08:25:06.391Z,1010.14
2018-01-15T08:26:06.369Z,1010.10
2018-01-15T08:27:06.346Z,1010.10
2018-01-15T08:28:06.325Z,1010.06
2018-01-15T08:29:06.335Z,1010.11
2018-01-15T08:30:06.280Z,1010.09
2018-01-15T08:31:06.259Z,1010.09
2018-01-15T08:32:06.239Z,1010.05
2018-01-15T08:33:06.214Z,1010.05
2018-01-15T08:34:06.192Z,1009.99
2018-01-15T08:35:06.170Z,1009.99
2018-01-15T08:36:06.148Z,1009.96
2018-01-15T08:37:06.126Z,1010.01
2018-01-15T08:38:06.106Z,1009.95
2018-01-15T08:39:06.082Z,1009.98
2018-01-15T08:40:06.061Z,1010.01
2018-01-15T08:41:06.037Z,1010.04
2018-01-15T08:42:06.016Z,1010.02
2018-01-15T08:43:05.994Z,1009.96
2018-01-15T08:44:05.972Z,1010.00
2018-01-15T08:45:05.948Z,1009.95
2018-01-15T08:46:05.928Z,1009.95
2018-01-15T08:47:05.906Z,1009.96
2018-01-15T08:48:05.883Z,1009.90
2018-01-15T08:49:05.862Z,1009.93
2018-01-15T08:50:05.840Z,1009.92
2018-01-15T08:51:05.818Z,1009.93
2018-01-15T08:52:05.795Z,1009.97
2018-01-15T08:53:05.773Z,1009.97
2018-01-15T08:54:05.751Z,1009.96
2018-01-15T08:55:05.729Z,1010.00
2018-01-15T08:56:05.707Z,1009.98
2018-01-15T08:57:05.683Z,1009.99
2018-01-15T08:58:05.662Z,1010.00
2018-01-15T08:59:05.641Z,1010.00
2018-01-15T09:00:05.619Z,1009.96
2018-01-15T09:01:05.621Z,1009.86
2018-01-15T09:02:05.575Z,1009.89
2018-01-15T09:03:05.552Z,1009.86
2018-01-15T09:04:05.530Z,1009.83
2018-01-15T09:05:05.508Z,1009.82
2018-01-15T09:06:05.485Z,1009.75
2018-01-15T09:07:05.465Z,1009.76
2018-01-15T09:08:05.442Z,1009.68
2018-01-15T09:09:05.420Z,1009.66
2018-01-15T09:10:05.398Z,1009.65
2018-01-15T09:11:05.377Z,1009.60
2018-01-15T09:12:05.355Z,1009.54
2018-01-15T09:13:05.332Z,1009.52
2018-01-15T09:14:05.314Z,1009.54
2018-01-15T09:15:05.289Z,1009.47
2018-01-15T09:16:05.266Z,1009.47
2018-01-15T09:17:05.244Z,1009.43
2018-01-15T09:18:05.223Z,1009.40
2018-01-15T09:19:05.201Z,1009.38
2018-01-15T09:20:05.178Z,1009.37
2018-01-15T09:21:05.156Z,1009.33
2018-01-15T09:22:05.135Z,1009.28
2018-01-15T09:23:05.116Z,1009.24
2018-01-15T09:24:05.090Z,1009.21
2018-01-15T09:25:05.068Z,1009.21
2018-01-15T09:26:05.046Z,1009.19
2018-01-15T09:27:05.028Z,1009.16
2018-01-15T09:28:05.004Z,1009.13
2018-01-15T09:29:04.980Z,1009.07
2018-01-15T09:30:04.959Z,1009.05
2018-01-15T09:31:04.937Z,1009.02
2018-01-15T09:32:04.914Z,1009.01
2018-01-15T09:33:04.893Z,1008.92
2018-01-15T09:34:04.870Z,1008.97
2018-01-15T09:35:04.849Z,1008.98
2018-01-15T09:36:04.827Z,1008.91
2018-01-15T09:37:04.803Z,1008.83
2018-01-15T09:38:04.782Z,1008.90
2018-01-15T09:39:04.759Z,1008.80
2018-01-15T09:40:04.736Z,1008.78
2018-01-15T09:41:04.714Z,1008.70
2018-01-15T09:42:04.693Z,1008.66
2018-01-15T09:43:04.670Z,1008.61
2018-01-15T09:44:04.651Z,1008.58
2018-01-15T09:45:04.626Z,1008.54
2018-01-15T09:46:04.604Z,1008.57
2018-01-15T09:47:04.581Z,1008.58
2018-01-15T09:48:04.560Z,1008.52
2018-01-15T09:49:04.537Z,1008.51
2018-01-15T09:50:04.515Z,1008.52
2018-01-15T09:51:04.493Z,1008.53
2018-01-15T09:52:04.471Z,1008.50
2018-01-15T09:53:04.448Z,1008.48
2018-01-15T09:54:04.427Z,1008.47
2018-01-15T09:55:04.405Z,1008.45
2018-01-15T09:56:04.382Z,1008.43
2018-01-15T09:57:04.360Z,1008.39
2018-01-15T09:58:04.339Z,1008.35
2018-01-15T09:59:04.315Z,1008.39
2018-01-15T10:00:04.294Z,1008.29
2018-01-15T10:01:04.272Z,1008.31
2018-01-15T10:02:04.250Z,1008.26
2018-01-15T10:03:04.228Z,1008.25
2018-01-15T10:04:04.205Z,1008.16
2018-01-15T10:05:04.183Z,1008.15
2018-01-15T10:06:04.161Z,1008.15
2018-01-15T10:07:04.139Z,1008.11
2018-01-15T10:08:04.119Z,1008.07
2018-01-15T10:09:04.134Z,1008.07
2018-01-15T10:10:04.072Z,1007.92
2018-01-15T10:11:04.050Z,1007.92
2018-01-15T10:12:04.028Z,1007.89
2018-01-15T10:13:04.005Z,1007.84
2018-01-15T10:14:03.982Z,1007.88
2018-01-15T10:15:03.962Z,1007.84
2018-01-15T10:16:03.939Z,1007.78
2018-01-15T10:17:03.917Z,1007.73
2018-01-15T10:18:03.895Z,1007.73
2018-01-15T10:19:03.872Z,1007.68
2018-01-15T10:20:03.850Z,1007.60
2018-01-15T10:21:03.826Z,1007.66
2018-01-15T10:22:03.805Z,1007.67
2018-01-15T10:23:03.783Z,1007.57
2018-01-15T10:24:03.761Z,1007.68
2018-01-15T10:25:03.738Z,1007.69
2018-01-15T10:26:03.720Z,1007.49
2018-01-15T10:27:03.694Z,1007.53
2018-01-15T10:28:03.671Z,1007.52
2018-01-15T10:29:03.648Z,1007.40
2018-01-15T10:30:03.627Z,1007.43
2018-01-15T10:31:03.604Z,1007.47
2018-01-15T10:32:03.583Z,1007.40
2018-01-15T10:33:03.558Z,1007.41
2018-01-15T10:34:03.536Z,1007.41
2018-01-15T10:35:03.516Z,1007.46
2018-01-15T10:36:03.492Z,1007.40
2018-01-15T10:37:03.469Z,1007.36
2018-01-15T10:38:03.447Z,1007.23
2018-01-15T10:39:03.426Z,1007.16
2018-01-15T10:40:03.403Z,1007.30
2018-01-15T10:41:03.380Z,1007.19
2018-01-15T10:42:03.357Z,1007.16
2018-01-15T10:43:03.336Z,1007.13
2018-01-15T10:44:03.313Z,1007.13
2018-01-15T10:45:03.290Z,1007.12
2018-01-15T10:46:03.268Z,1007.13
2018-01-15T10:47:03.246Z,1007.14
2018-01-15T10:48:03.223Z,1007.08
2018-01-15T10:49:03.200Z,1007.11
2018-01-15T10:50:03.178Z,1007.04
2018-01-15T10:51:03.155Z,1006.92
2018-01-15T10:52:03.133Z,1006.89
2018-01-15T10:53:03.110Z,1006.81
2018-01-15T10:54:03.088Z,1006.76
2018-01-15T10:55:03.066Z,1006.76
2018-01-15T10:56:03.044Z,1006.75
2018-01-15T10:57:03.020Z,1006.66
2018-01-15T10:58:02.999Z,1006.59
2018-01-15T10:59:02.976Z,1006.63
2018-01-15T11:00:02.954Z,1006.60
2018-01-15T11:01:02.930Z,1006.55
2018-01-15T11:02:02.909Z,1006.47
2018-01-15T11:03:02.886Z,1006.43
2018-01-15T11:04:02.865Z,1006.48
2018-01-15T11:05:02.846Z,1006.38
2018-01-15T11:06:02.819Z,1006.36
2018-01-15T11:07:02.795Z,1006.27
2018-01-15T11:08:02.775Z,1006.27
2018-01-15T11:09:02.758Z,1006.16
2018-01-15T11:10:02.730Z,1006.21
2018-01-15T11:11:02.707Z,1006.18
2018-01-15T11:12:02.685Z,1006.06
2018-01-15T11:13:02.663Z,1006.09
2018-01-15T11:14:02.640Z,1006.11
2018-01-15T11:15:02.617Z,1006.06
2018-01-15T11:16:02.594Z,1005.94
2018-01-15T11:17:02.572Z,1005.92
2018-01-15T11:18:02.550Z,1005.93
2018-01-15T11:19:02.531Z,1005.91
2018-01-15T11:20:02.506Z,1005.85
2018-01-15T11:21:02.483Z,1005.77
2018-01-15T11:22:02.460Z,1005.77
2018-01-15T11:23:02.438Z,1005.70
2018-01-15T11:24:02.416Z,1005.71
2018-01-15T11:25:02.391Z,1005.59
2018-01-15T11:26:02.371Z,1005.56
2018-01-15T11:27:02.359Z,1005.61
2018-01-15T11:28:02.327Z,1005.51
2018-01-15T11:29:02.304Z,1005.51
2018-01-15T11:30:02.282Z,1005.55
2018-01-15T11:31:02.259Z,1005.50
2018-01-15T11:32:02.241Z,1005.51
2018-01-15T11:33:02.213Z,1005.44
2018-01-15T11:34:02.192Z,1005.38
2018-01-15T11:35:02.171Z,1005.35
2018-01-15T11:36:02.146Z,1005.31
2018-01-15T11:37:02.124Z,1005.36
2018-01-15T11:38:02.101Z,1005.24
2018-01-15T11:39:02.080Z,1005.16
2018-01-15T11:40:02.061Z,1005.07
2018-01-15T11:41:02.035Z,1005.01
2018-01-15T11:42:02.062Z,1004.98
2018-01-15T11:43:01.991Z,1004.81
2018-01-15T11:44:01.968Z,1004.65
2018-01-15T11:45:01.945Z,1004.70
2018-01-15T11:46:01.923Z,1004.63
2018-01-15T11:47:01.901Z,1004.50
2018-01-15T11:48:01.879Z,1004.47
2018-01-15T11:49:01.868Z,1004.55
2018-01-15T11:50:01.834Z,1004.51
2018-01-15T11:51:01.811Z,1004.39
2018-01-15T11:52:01.790Z,1004.32
2018-01-15T11:53:01.766Z,1004.21
2018-01-15T11:54:01.744Z,1004.19
2018-01-15T11:55:01.722Z,1004.04
2018-01-15T11:56:01.698Z,1004.00
2018-01-15T11:57:01.676Z,1003.93
2018-01-15T11:58:01.654Z,1003.84
2018-01-15T11:59:01.631Z,1003.96
2018-01-15T12:00:01.609Z,1003.96
2018-01-15T12:01:01.586Z,1003.92
2018-01-15T12:02:01.564Z,1003.83
2018-01-15T12:03:01.541Z,1003.76
2018-01-15T12:04:01.519Z,1003.65
2018-01-15T12:05:01.495Z,1003.56
2018-01-15T12:06:01.472Z,1003.54